Time;durP1;ratioP1;P1;durP2;ratioP2;P2;SDS_P1;SDS_P2;PMS_P1;PMS_P2;Temp;Humidity;BMP_temperature;BMP_pressure;BME280_temperature;BME280_humidity;BME280_pressure;Samples;Min_cycle;Max_cycle;Signal;HPM_P1;HPM_P2
2021/10/08 00:00:25;;;;;;;17.51;6.23;;;;;;;;;;366123;147;864858;-60
2021/10/08 00:01:28;;;;;;;10.59;5.81;;;;;;;;;;366930;144;857234;-60
2021/10/08 00:02:29;;;;;;;14.06;6.11;;;;;;;;;;364473;146;866856;-60
2021/10/08 00:03:31;;;;;;;11.09;5.74;;;;;;;;;;365458;147;857354;-60
2021/10/08 00:04:33;;;;;;;16.07;5.74;;;;;;;;;;365675;147;859102;-61
2021/10/08 00:05:35;;;;;;;14.93;6.36;;;;;;;;;;363749;146;860510;-60
2021/10/08 00:06:37;;;;;;;17.56;6.12;;;;;;;;;;365995;146;858718;-60
2021/10/08 00:07:39;;;;;;;15.17;6.36;;;;;;;;;;365773;147;857207;-61
2021/10/08 00:08:42;;;;;;;18.94;6.85;;;;;;;;;;365171;146;865002;-61
2021/10/08 00:09:44;;;;;;;15.71;6.61;;;;;;;;;;363895;146;857244;-61
2021/10/08 00:10:46;;;;;;;14.52;6.81;;;;;;;;;;366040;147;857242;-61
2021/10/08 00:11:48;;;;;;;16.91;6.79;;;;;;;;;;365011;147;857284;-60
2021/10/08 00:12:49;;;;;;;15.94;6.53;;;;;;;;;;365308;147;864856;-60
2021/10/08 00:13:51;;;;;;;11.50;5.89;;;;;;;;;;360133;147;866481;-61
2021/10/08 00:14:53;;;;;;;18.18;6.91;;;;;;;;;;359535;147;865722;-61
2021/10/08 00:15:54;;;;;;;19.45;7.75;;;;;;;;;;364421;146;859187;-61
2021/10/08 00:16:58;;;;;;;18.18;7.24;;;;;;;;;;365874;147;857176;-61
2021/10/08 00:17:59;;;;;;;23.86;7.69;;;;;;;;;;366071;147;859331;-61
2021/10/08 00:19:01;;;;;;;22.27;7.22;;;;;;;;;;364234;146;865173;-60
2021/10/08 00:20:03;;;;;;;14.53;7.06;;;;;;;;;;364688;146;865136;-60
2021/10/08 00:21:05;;;;;;;15.42;6.99;;;;;;;;;;360614;147;864891;-61
2021/10/08 00:22:06;;;;;;;17.24;6.99;;;;;;;;;;360969;147;859046;-60
2021/10/08 00:23:08;;;;;;;21.48;7.27;;;;;;;;;;362483;146;867047;-60
2021/10/08 00:24:09;;;;;;;14.98;6.82;;;;;;;;;;362995;147;860020;-60
2021/10/08 00:25:11;;;;;;;16.26;7.14;;;;;;;;;;359221;150;857419;-60
2021/10/08 00:26:13;;;;;;;20.91;6.57;;;;;;;;;;363392;146;857458;-60
2021/10/08 00:27:14;;;;;;;22.24;8.76;;;;;;;;;;365080;146;857418;-60
2021/10/08 00:28:16;;;;;;;25.00;7.17;;;;;;;;;;364894;147;857375;-60
2021/10/08 00:29:18;;;;;;;22.05;6.91;;;;;;;;;;364393;147;858642;-60
2021/10/08 00:30:20;;;;;;;24.62;7.53;;;;;;;;;;363589;146;865799;-61
2021/10/08 00:31:22;;;;;;;18.03;6.96;;;;;;;;;;359768;147;857254;-60
2021/10/08 00:32:24;;;;;;;25.36;7.31;;;;;;;;;;363774;147;857890;-60
2021/10/08 00:33:25;;;;;;;18.09;7.62;;;;;;;;;;365349;146;859157;-60
2021/10/08 00:34:27;;;;;;;21.12;7.63;;;;;;;;;;365553;147;859607;-61
2021/10/08 00:35:29;;;;;;;17.27;7.43;;;;;;;;;;365668;147;857297;-60
2021/10/08 00:36:31;;;;;;;17.94;6.71;;;;;;;;;;365759;147;857644;-60
2021/10/08 00:37:33;;;;;;;21.88;7.36;;;;;;;;;;364650;146;857605;-60
2021/10/08 00:38:34;;;;;;;18.17;6.80;;;;;;;;;;365959;147;860989;-60
2021/10/08 00:39:36;;;;;;;21.51;7.46;;;;;;;;;;365782;146;859134;-61
2021/10/08 00:40:40;;;;;;;30.79;7.13;;;;;;;;;;362955;146;865022;-61
2021/10/08 00:41:43;;;;;;;18.57;6.87;;;;;;;;;;361986;147;857288;-61
2021/10/08 00:42:46;;;;;;;20.55;7.64;;;;;;;;;;365968;147;857344;-61
2021/10/08 00:43:47;;;;;;;14.84;7.47;;;;;;;;;;362648;146;856302;-60
2021/10/08 00:44:49;;;;;;;17.85;6.82;;;;;;;;;;359999;148;867146;-60
2021/10/08 00:45:50;;;;;;;17.31;6.96;;;;;;;;;;357990;150;861042;-61
2021/10/08 00:46:54;;;;;;;17.30;7.13;;;;;;;;;;358732;150;865485;-61
2021/10/08 00:47:57;;;;;;;29.71;7.69;;;;;;;;;;357114;148;857231;-60
2021/10/08 00:48:59;;;;;;;21.89;7.08;;;;;;;;;;356169;149;864974;-60
2021/10/08 00:50:00;;;;;;;22.24;7.39;;;;;;;;;;358111;150;858519;-60
2021/10/08 00:51:02;;;;;;;16.94;7.33;;;;;;;;;;358627;149;864767;-61
2021/10/08 00:52:04;;;;;;;18.21;7.43;;;;;;;;;;358351;149;865042;-61
2021/10/08 00:53:05;;;;;;;23.45;7.16;;;;;;;;;;356283;150;865097;-61
2021/10/08 00:54:07;;;;;;;17.15;6.94;;;;;;;;;;357962;149;859198;-60
2021/10/08 00:55:09;;;;;;;16.23;7.04;;;;;;;;;;356577;148;866353;-61
2021/10/08 00:56:12;;;;;;;24.22;6.69;;;;;;;;;;358304;149;859841;-60
2021/10/08 00:57:13;;;;;;;16.27;7.03;;;;;;;;;;353165;149;859642;-60
2021/10/08 00:58:16;;;;;;;20.63;6.75;;;;;;;;;;357527;148;865197;-60
2021/10/08 00:59:17;;;;;;;21.33;8.22;;;;;;;;;;357070;150;864965;-60
2021/10/08 01:00:21;;;;;;;13.62;6.19;;;;;;;;;;356360;150;864933;-60
2021/10/08 01:01:22;;;;;;;16.91;6.86;;;;;;;;;;356857;148;857749;-60
2021/10/08 01:02:24;;;;;;;17.77;6.47;;;;;;;;;;351323;153;865896;-60
2021/10/08 01:03:26;;;;;;;19.18;6.93;;;;;;;;;;349907;152;857280;-60
2021/10/08 01:04:27;;;;;;;17.31;7.32;;;;;;;;;;357205;150;865017;-60
2021/10/08 01:05:29;;;;;;;20.12;6.78;;;;;;;;;;358637;148;865000;-60
2021/10/08 01:06:32;;;;;;;14.60;7.51;;;;;;;;;;359154;150;856342;-61
2021/10/08 01:07:33;;;;;;;15.62;6.64;;;;;;;;;;358051;150;856005;-60
2021/10/08 01:08:35;;;;;;;16.75;6.64;;;;;;;;;;359588;148;864021;-60
2021/10/08 01:09:36;;;;;;;16.54;7.22;;;;;;;;;;354445;149;863615;-60
2021/10/08 01:10:39;;;;;;;19.50;6.51;;;;;;;;;;358170;150;856517;-61
2021/10/08 01:11:43;;;;;;;19.44;7.49;;;;;;;;;;357641;149;856365;-60
2021/10/08 01:12:45;;;;;;;15.56;6.79;;;;;;;;;;357903;148;856078;-60
2021/10/08 01:13:46;;;;;;;11.94;6.27;;;;;;;;;;357023;149;855980;-60
2021/10/08 01:14:48;;;;;;;21.02;7.39;;;;;;;;;;357911;149;863870;-60
2021/10/08 01:15:51;;;;;;;11.87;6.44;;;;;;;;;;358639;148;856106;-60
2021/10/08 01:16:53;;;;;;;15.32;6.96;;;;;;;;;;359037;150;858624;-60
2021/10/08 01:17:55;;;;;;;18.16;6.49;;;;;;;;;;358467;150;856064;-60
2021/10/08 01:18:56;;;;;;;12.63;6.86;;;;;;;;;;358211;149;864420;-60
2021/10/08 01:19:59;;;;;;;17.20;7.04;;;;;;;;;;358136;148;864248;-60
2021/10/08 01:21:01;;;;;;;15.36;7.51;;;;;;;;;;359074;150;863810;-61
2021/10/08 01:23:57;;;;;;;11.38;6.51;;;;;;;4.88;55.16;101856.47;372883;142;874621;-58
2021/10/08 01:24:59;;;;;;;13.27;6.55;;;;;;;4.77;55.33;101852.48;363934;148;860959;-58
2021/10/08 01:26:02;;;;;;;13.74;6.72;;;;;;;4.76;55.30;101863.56;363425;145;858190;-58
2021/10/08 01:27:05;;;;;;;19.06;6.71;;;;;;;4.76;55.36;101856.76;363742;144;868296;-59
2021/10/08 01:28:06;;;;;;;13.92;7.06;;;;;;;4.76;55.45;101861.00;360549;148;857416;-59
2021/10/08 01:29:09;;;;;;;13.91;6.99;;;;;;;4.76;55.41;101854.20;360654;145;859568;-58
2021/10/08 01:30:12;;;;;;;11.19;6.72;;;;;;;4.74;55.45;101858.38;364219;145;868076;-58
2021/10/08 01:31:14;;;;;;;13.02;7.50;;;;;;;4.76;55.43;101854.20;363885;147;865570;-58
2021/10/08 01:32:15;;;;;;;14.96;7.21;;;;;;;4.80;55.33;101860.36;363905;145;857648;-59
2021/10/08 01:33:17;;;;;;;20.16;7.32;;;;;;;4.83;55.27;101850.23;362956;144;865868;-59
2021/10/08 01:34:19;;;;;;;16.00;7.54;;;;;;;4.83;55.27;101850.23;360949;147;865333;-58
2021/10/08 01:35:21;;;;;;;13.47;6.89;;;;;;;4.86;55.26;101857.19;359514;146;864932;-59
2021/10/08 01:36:23;;;;;;;14.34;6.53;;;;;;;4.85;55.20;101853.75;362597;145;864872;-59
2021/10/08 01:37:25;;;;;;;15.01;6.69;;;;;;;4.85;55.37;101855.42;363997;145;858365;-59
2021/10/08 01:38:27;;;;;;;11.91;6.89;;;;;;;4.85;55.19;101856.32;363887;147;866093;-59
2021/10/08 01:39:29;;;;;;;16.26;7.38;;;;;;;4.84;55.20;101857.13;362787;146;858491;-58
2021/10/08 01:40:31;;;;;;;12.83;6.87;;;;;;;4.84;55.20;101857.13;363768;144;865201;-58
2021/10/08 01:41:33;;;;;;;13.69;6.39;;;;;;;4.85;55.20;101863.13;361324;147;857255;-59
2021/10/08 01:42:35;;;;;;;14.03;6.81;;;;;;;4.83;55.24;101850.23;358117;148;857312;-59
2021/10/08 01:43:37;;;;;;;15.55;6.77;;;;;;;4.82;55.30;101856.18;358864;147;857293;-59
2021/10/08 01:44:38;;;;;;;14.64;7.03;;;;;;;;;;358068;148;865375;-58
2021/10/08 01:45:40;;;;;;;15.13;6.92;;;;;;;;;;359382;150;865923;-59
2021/10/08 01:46:42;;;;;;;15.99;6.81;;;;;;;;;;359655;147;864998;-59
2021/10/08 01:47:44;;;;;;;15.50;7.07;;;;;;;;;;358970;147;858305;-58
2021/10/08 01:48:45;;;;;;;11.26;6.72;;;;;;;;;;355777;149;858346;-58
2021/10/08 01:49:47;;;;;;;11.28;7.16;;;;;;;;;;356279;148;857817;-58
2021/10/08 01:50:49;;;;;;;15.02;6.56;;;;;;;;;;358673;147;858893;-58
2021/10/08 01:51:50;;;;;;;14.81;6.76;;;;;;;;;;357862;150;857308;-58
2021/10/08 01:52:52;;;;;;;14.79;6.91;;;;;;;;;;359056;149;858168;-58
2021/10/08 01:53:54;;;;;;;10.03;6.21;;;;;;;;;;359432;148;858025;-58
2021/10/08 01:54:55;;;;;;;14.74;6.86;;;;;;;;;;358098;149;865674;-58
2021/10/08 01:55:57;;;;;;;16.61;7.38;;;;;;;;;;354799;151;859938;-58
2021/10/08 01:56:59;;;;;;;12.21;7.12;;;;;;;;;;358229;148;857773;-58
2021/10/08 01:58:01;;;;;;;12.03;6.66;;;;;;;;;;361054;147;857457;-58
2021/10/08 01:59:02;;;;;;;11.81;6.81;;;;;;;;;;358795;149;857312;-58
2021/10/08 02:00:05;;;;;;;14.29;6.70;;;;;;;;;;360555;149;861583;-58
2021/10/08 02:01:06;;;;;;;13.53;7.53;;;;;;;;;;358782;147;859613;-58
2021/10/08 02:02:08;;;;;;;15.48;7.46;;;;;;;;;;355054;148;859034;-58
2021/10/08 02:03:09;;;;;;;13.57;6.95;;;;;;;;;;349887;153;859461;-58
2021/10/08 02:04:11;;;;;;;14.63;6.48;;;;;;;;;;349598;152;859897;-58
2021/10/08 02:05:12;;;;;;;15.56;6.64;;;;;;;;;;349163;152;865084;-57
2021/10/08 02:06:15;;;;;;;15.67;7.66;;;;;;;;;;359252;150;859979;-58
2021/10/08 02:07:16;;;;;;;13.03;6.44;;;;;;;;;;359664;149;857319;-58
2021/10/08 02:08:18;;;;;;;12.84;6.66;;;;;;;;;;358116;147;864035;-58
2021/10/08 02:09:20;;;;;;;11.46;6.61;;;;;;;;;;356593;148;865075;-58
2021/10/08 02:10:22;;;;;;;13.39;6.73;;;;;;;;;;357471;149;864813;-58
2021/10/08 02:11:24;;;;;;;14.02;7.27;;;;;;;;;;360001;147;857639;-58
2021/10/08 02:12:25;;;;;;;11.61;6.91;;;;;;;;;;352058;151;857497;-57
2021/10/08 02:13:27;;;;;;;16.12;6.51;;;;;;;;;;358805;147;864993;-58
2021/10/08 02:14:28;;;;;;;11.69;7.03;;;;;;;;;;359103;147;858976;-58
2021/10/08 02:15:30;;;;;;;15.07;6.86;;;;;;;;;;359826;147;865212;-58
2021/10/08 02:16:33;;;;;;;11.89;6.32;;;;;;;;;;359294;150;858875;-58
2021/10/08 02:17:35;;;;;;;14.84;7.39;;;;;;;;;;359262;147;860821;-58
2021/10/08 02:18:36;;;;;;;11.37;6.75;;;;;;;;;;359413;147;865102;-58
2021/10/08 02:19:38;;;;;;;11.67;7.06;;;;;;;;;;357717;147;857070;-58
2021/10/08 02:20:41;;;;;;;17.25;7.47;;;;;;;;;;358335;149;858887;-58
2021/10/08 02:21:43;;;;;;;16.59;6.67;;;;;;;;;;360116;147;858613;-58
2021/10/08 02:22:46;;;;;;;12.26;7.00;;;;;;;;;;360866;147;864979;-58
2021/10/08 02:23:48;;;;;;;10.98;6.53;;;;;;;;;;359130;147;857691;-58
2021/10/08 02:24:50;;;;;;;12.45;7.01;;;;;;;;;;359283;147;858151;-58
2021/10/08 02:25:51;;;;;;;17.11;8.00;;;;;;;;;;359624;147;866352;-59
2021/10/08 02:26:53;;;;;;;13.46;6.76;;;;;;;;;;359205;147;865125;-59
2021/10/08 02:27:54;;;;;;;17.24;7.14;;;;;;;;;;362480;147;864919;-58
2021/10/08 02:28:56;;;;;;;12.44;6.53;;;;;;;;;;359660;147;864913;-59
2021/10/08 02:29:58;;;;;;;11.54;6.56;;;;;;;;;;356480;148;858337;-58
2021/10/08 02:30:59;;;;;;;16.39;6.84;;;;;;;;;;359628;147;866821;-58
2021/10/08 02:32:01;;;;;;;15.69;7.14;;;;;;;;;;358975;148;866678;-58
2021/10/08 02:33:02;;;;;;;10.78;6.51;;;;;;;;;;357747;147;860869;-58
2021/10/08 02:34:05;;;;;;;17.48;7.28;;;;;;;;;;359547;147;865747;-57
2021/10/08 02:35:07;;;;;;;14.33;7.23;;;;;;;;;;363028;147;858353;-58
2021/10/08 02:36:09;;;;;;;12.03;7.28;;;;;;;;;;359024;147;859410;-58
2021/10/08 02:37:11;;;;;;;13.06;6.93;;;;;;;;;;355917;149;858663;-57
2021/10/08 02:38:12;;;;;;;13.39;8.14;;;;;;;;;;357166;148;864966;-58
2021/10/08 02:39:14;;;;;;;12.50;6.94;;;;;;;;;;359911;147;857453;-57
2021/10/08 02:40:16;;;;;;;13.25;7.15;;;;;;;;;;353130;151;864981;-57
2021/10/08 02:41:17;;;;;;;13.55;7.68;;;;;;;;;;359498;147;859445;-57
2021/10/08 02:42:19;;;;;;;12.19;7.60;;;;;;;;;;359445;147;865613;-55
2021/10/08 02:43:21;;;;;;;15.67;7.76;;;;;;;;;;359788;147;864906;-59
2021/10/08 02:44:22;;;;;;;14.89;7.98;;;;;;;;;;356553;149;868323;-59
2021/10/08 02:45:24;;;;;;;20.65;7.81;;;;;;;;;;359150;149;858471;-58
2021/10/08 02:46:27;;;;;;;17.81;7.88;;;;;;;;;;358948;147;864896;-58
2021/10/08 02:47:29;;;;;;;17.78;8.50;;;;;;;;;;358996;147;858421;-58
2021/10/08 02:48:30;;;;;;;17.18;8.09;;;;;;;;;;361218;147;864164;-58
2021/10/08 02:49:32;;;;;;;15.44;8.01;;;;;;;;;;360243;147;864976;-60
2021/10/08 02:50:35;;;;;;;15.66;7.89;;;;;;;;;;358524;147;857770;-58
2021/10/08 02:51:37;;;;;;;16.21;7.81;;;;;;;;;;358812;147;857072;-58
2021/10/08 02:52:38;;;;;;;13.59;8.28;;;;;;;;;;358932;147;865054;-58
2021/10/08 02:53:40;;;;;;;16.47;8.41;;;;;;;;;;360485;147;860741;-59
2021/10/08 02:54:41;;;;;;;16.03;8.41;;;;;;;;;;358197;147;859674;-58
2021/10/08 02:55:43;;;;;;;17.89;8.41;;;;;;;;;;358624;149;858069;-59
2021/10/08 02:56:46;;;;;;;14.42;8.37;;;;;;;;;;360170;147;857292;-58
2021/10/08 02:57:47;;;;;;;15.46;8.52;;;;;;;;;;350756;151;858630;-59
2021/10/08 02:58:49;;;;;;;15.52;8.16;;;;;;;;;;348964;153;858568;-59
2021/10/08 02:59:51;;;;;;;13.68;7.95;;;;;;;;;;357940;148;865988;-58
2021/10/08 03:00:54;;;;;;;13.77;8.29;;;;;;;;;;358133;147;857915;-58
2021/10/08 03:01:55;;;;;;;12.64;8.62;;;;;;;;;;359416;149;859150;-58
2021/10/08 03:02:57;;;;;;;14.11;8.29;;;;;;;;;;358335;149;857309;-58
2021/10/08 03:04:00;;;;;;;13.85;8.46;;;;;;;;;;358848;147;857355;-59
2021/10/08 03:05:02;;;;;;;15.08;8.31;;;;;;;;;;358313;148;865059;-58
2021/10/08 03:06:04;;;;;;;16.66;8.25;;;;;;;;;;358738;149;857351;-60
2021/10/08 03:07:05;;;;;;;17.91;8.96;;;;;;;;;;358319;147;857464;-59
2021/10/08 03:08:08;;;;;;;14.81;9.07;;;;;;;;;;357853;147;865369;-58
2021/10/08 03:09:09;;;;;;;13.99;8.39;;;;;;;;;;358890;147;859884;-58
2021/10/08 03:10:11;;;;;;;23.00;8.43;;;;;;;;;;360196;148;858599;-58
2021/10/08 03:11:13;;;;;;;14.05;8.87;;;;;;;;;;358480;147;856710;-59
2021/10/08 03:12:15;;;;;;;17.23;8.11;;;;;;;;;;357417;148;865397;-58
2021/10/08 03:13:16;;;;;;;17.19;8.89;;;;;;;;;;355917;149;857359;-58
2021/10/08 03:14:18;;;;;;;15.68;8.61;;;;;;;;;;356311;147;865661;-58
2021/10/08 03:15:20;;;;;;;11.81;8.06;;;;;;;;;;360059;147;866672;-59
2021/10/08 03:16:22;;;;;;;16.76;8.08;;;;;;;;;;355918;148;866711;-58
2021/10/08 03:17:23;;;;;;;15.02;8.22;;;;;;;;;;357811;149;857649;-58
2021/10/08 03:18:26;;;;;;;12.45;7.70;;;;;;;;;;358603;147;858259;-58
2021/10/08 03:19:27;;;;;;;13.65;7.37;;;;;;;;;;358220;147;856848;-58
2021/10/08 03:20:32;;;;;;;14.41;8.62;;;;;;;;;;358658;148;857225;-58
2021/10/08 03:21:33;;;;;;;15.40;8.26;;;;;;;;;;358295;147;857366;-58
2021/10/08 03:22:35;;;;;;;17.34;7.79;;;;;;;;;;358392;147;857332;-58
2021/10/08 03:23:36;;;;;;;14.96;7.80;;;;;;;;;;359964;147;866495;-57
2021/10/08 03:24:38;;;;;;;16.15;7.53;;;;;;;;;;358749;147;859293;-56
2021/10/08 03:25:40;;;;;;;15.12;7.08;;;;;;;;;;359347;147;865138;-57
2021/10/08 03:26:42;;;;;;;12.19;7.39;;;;;;;;;;359244;147;860232;-58
2021/10/08 03:27:44;;;;;;;11.08;6.90;;;;;;;;;;359610;147;857267;-58
2021/10/08 03:28:45;;;;;;;13.45;7.55;;;;;;;;;;358721;147;865927;-58
2021/10/08 03:29:47;;;;;;;13.06;7.44;;;;;;;;;;360083;147;861073;-57
2021/10/08 03:30:49;;;;;;;14.18;7.87;;;;;;;;;;358792;147;866454;-57
2021/10/08 03:31:51;;;;;;;12.50;7.41;;;;;;;;;;358708;147;858417;-57
2021/10/08 03:32:52;;;;;;;17.32;6.97;;;;;;;;;;357392;148;864895;-57
2021/10/08 03:33:54;;;;;;;13.19;7.36;;;;;;;;;;359763;147;857353;-58
2021/10/08 03:34:55;;;;;;;13.53;7.16;;;;;;;;;;359771;147;857269;-58
2021/10/08 03:35:57;;;;;;;14.19;7.44;;;;;;;;;;358933;147;866731;-58
2021/10/08 03:37:02;;;;;;;12.11;6.86;;;;;;;;;;359977;147;859781;-58
2021/10/08 03:38:09;;;;;;;11.62;7.28;;;;;;;;;;362077;147;864973;-58
2021/10/08 03:39:06;;;;;;;14.04;7.26;;;;;;;;;;358686;148;859571;-57
2021/10/08 03:40:10;;;;;;;10.65;6.83;;;;;;;;;;358842;147;859662;-58
2021/10/08 03:41:15;;;;;;;13.58;7.49;;;;;;;;;;360824;147;869275;-58
2021/10/08 03:42:18;;;;;;;10.96;6.56;;;;;;;;;;358096;148;859048;-59
2021/10/08 03:43:19;;;;;;;14.49;7.56;;;;;;;;;;358125;147;857310;-59
2021/10/08 03:44:21;;;;;;;11.39;6.73;;;;;;;;;;357501;147;857151;-58
2021/10/08 03:45:29;;;;;;;16.82;7.04;;;;;;;;;;358369;147;857768;-59
2021/10/08 03:46:32;;;;;;;13.62;7.35;;;;;;;;;;357958;147;866395;-59
2021/10/08 03:47:50;;;;;;;12.49;6.61;;;;;;;;;;358186;148;864838;-59
2021/10/08 03:49:00;;;;;;;12.91;7.61;;;;;;;;;;355979;147;857514;-59
2021/10/08 03:49:42;;;;;;;10.92;6.68;;;;;;;;;;356160;147;857702;-59
2021/10/08 03:50:44;;;;;;;19.00;6.69;;;;;;;;;;361166;147;857668;-59
2021/10/08 03:51:46;;;;;;;11.68;6.94;;;;;;;;;;359795;147;859979;-59
2021/10/08 03:52:48;;;;;;;12.97;6.90;;;;;;;;;;358571;147;857371;-59
2021/10/08 03:53:49;;;;;;;12.04;7.29;;;;;;;;;;358984;148;857257;-56
2021/10/08 03:54:51;;;;;;;18.33;7.35;;;;;;;;;;357236;147;859197;-58
2021/10/08 03:55:53;;;;;;;16.65;7.19;;;;;;;;;;358697;148;857241;-57
2021/10/08 03:56:54;;;;;;;11.07;7.27;;;;;;;;;;358393;147;857717;-58
2021/10/08 03:57:56;;;;;;;12.90;7.04;;;;;;;;;;358626;147;859572;-58
2021/10/08 03:58:58;;;;;;;15.44;6.75;;;;;;;;;;362284;147;864945;-61
2021/10/08 03:59:59;;;;;;;16.50;8.41;;;;;;;;;;359001;147;866945;-60
2021/10/08 04:01:01;;;;;;;10.24;7.21;;;;;;;;;;358366;147;866827;-60
2021/10/08 04:02:02;;;;;;;12.32;7.10;;;;;;;;;;362462;147;859709;-59
2021/10/08 04:03:04;;;;;;;11.27;6.45;;;;;;;;;;359281;147;858266;-60
2021/10/08 04:04:06;;;;;;;11.67;7.26;;;;;;;;;;356483;147;857596;-61
2021/10/08 04:05:08;;;;;;;11.42;6.81;;;;;;;;;;359451;148;857792;-60
2021/10/08 04:06:10;;;;;;;12.04;7.24;;;;;;;;;;357699;149;857378;-61
2021/10/08 04:07:11;;;;;;;13.94;7.36;;;;;;;;;;358549;147;856238;-58
2021/10/08 04:08:13;;;;;;;11.03;7.00;;;;;;;;;;358656;147;859029;-60
2021/10/08 04:09:14;;;;;;;13.52;6.84;;;;;;;;;;358009;148;858849;-59
2021/10/08 04:10:16;;;;;;;14.25;7.49;;;;;;;;;;358065;147;857227;-59
2021/10/08 04:11:18;;;;;;;13.84;6.79;;;;;;;;;;360565;147;857546;-61
2021/10/08 04:12:19;;;;;;;12.75;7.36;;;;;;;;;;357679;148;857251;-59
2021/10/08 04:13:21;;;;;;;11.89;6.73;;;;;;;;;;360056;147;856885;-59
2021/10/08 04:14:23;;;;;;;12.79;7.51;;;;;;;;;;360987;147;864905;-58
2021/10/08 04:15:24;;;;;;;11.93;7.04;;;;;;;;;;359365;147;864872;-60
2021/10/08 04:16:27;;;;;;;14.71;7.52;;;;;;;;;;358893;147;857120;-60
2021/10/08 04:17:28;;;;;;;15.34;7.49;;;;;;;;;;358669;147;858029;-59
2021/10/08 04:18:30;;;;;;;14.13;7.46;;;;;;;;;;358078;148;857491;-59
2021/10/08 04:19:31;;;;;;;14.53;7.69;;;;;;;;;;360111;147;859054;-59
2021/10/08 04:20:35;;;;;;;16.62;7.83;;;;;;;;;;360466;147;865399;-60
2021/10/08 04:21:36;;;;;;;11.45;6.93;;;;;;;;;;360626;147;857372;-60
2021/10/08 04:22:38;;;;;;;15.66;8.10;;;;;;;;;;358626;148;863816;-60
2021/10/08 04:23:39;;;;;;;13.45;7.71;;;;;;;;;;361171;147;857342;-60
2021/10/08 04:24:41;;;;;;;12.40;7.35;;;;;;;;;;358595;147;857374;-59
2021/10/08 04:25:43;;;;;;;13.26;7.26;;;;;;;;;;358420;149;857403;-60
2021/10/08 04:26:44;;;;;;;12.25;7.46;;;;;;;;;;358444;149;859593;-60
2021/10/08 04:27:46;;;;;;;14.96;7.17;;;;;;;;;;359344;147;857321;-59
2021/10/08 04:28:48;;;;;;;11.80;7.81;;;;;;;;;;359991;148;859609;-59
2021/10/08 04:29:49;;;;;;;14.79;7.63;;;;;;;;;;357768;147;857339;-59
2021/10/08 04:30:51;;;;;;;20.53;7.78;;;;;;;;;;360100;147;857422;-59
2021/10/08 04:31:52;;;;;;;12.81;8.01;;;;;;;;;;357869;147;864921;-59
2021/10/08 04:32:54;;;;;;;19.24;7.73;;;;;;;;;;358373;147;866091;-60
2021/10/08 04:33:55;;;;;;;14.91;7.54;;;;;;;;;;359987;147;859011;-59
2021/10/08 04:34:57;;;;;;;13.06;7.52;;;;;;;;;;360035;147;857283;-60
2021/10/08 04:36:01;;;;;;;19.64;8.35;;;;;;;;;;352064;151;857852;-59
2021/10/08 04:37:03;;;;;;;14.82;8.04;;;;;;;;;;359175;147;857458;-59
2021/10/08 04:38:05;;;;;;;15.38;8.51;;;;;;;;;;358569;147;857301;-57
2021/10/08 04:39:07;;;;;;;12.82;8.10;;;;;;;;;;358760;147;865980;-59
2021/10/08 04:40:09;;;;;;;20.64;8.84;;;;;;;;;;359866;147;858041;-59
2021/10/08 04:41:11;;;;;;;15.91;8.75;;;;;;;;;;359283;148;865269;-60
2021/10/08 04:42:12;;;;;;;12.96;8.16;;;;;;;;;;359943;147;856616;-59
2021/10/08 04:43:14;;;;;;;15.01;8.46;;;;;;;;;;358280;147;859507;-59
2021/10/08 04:44:16;;;;;;;13.72;8.27;;;;;;;;;;359979;147;864915;-59
2021/10/08 04:45:17;;;;;;;16.85;8.69;;;;;;;;;;359158;147;866272;-60
2021/10/08 04:46:20;;;;;;;18.54;9.12;;;;;;;;;;359007;147;859171;-59
2021/10/08 04:47:22;;;;;;;13.04;9.09;;;;;;;;;;358183;147;857927;-59
2021/10/08 04:48:23;;;;;;;14.60;9.11;;;;;;;;;;357570;147;864877;-60
2021/10/08 05:03:21;;;;;;;18.53;8.79;;;;;;;4.55;57.24;101948.11;371132;142;879832;-57
2021/10/08 05:04:23;;;;;;;19.35;8.75;;;;;;;4.49;57.09;101951.23;362244;145;856172;-58
2021/10/08 05:05:25;;;;;;;18.14;8.87;;;;;;;4.52;57.11;101947.16;366467;145;857681;-58
2021/10/08 05:06:28;;;;;;;17.99;8.91;;;;;;;4.61;56.84;101953.54;362978;144;863919;-59
2021/10/08 05:07:30;;;;;;;15.44;9.10;;;;;;;4.66;56.72;101955.50;365300;144;856038;-58
2021/10/08 05:08:32;;;;;;;14.49;8.64;;;;;;;4.74;56.66;101960.13;364527;144;856751;-59
2021/10/08 05:09:33;;;;;;;16.60;8.92;;;;;;;4.74;55.99;101957.56;362106;145;864320;-58
2021/10/08 05:10:37;;;;;;;15.58;9.01;;;;;;;4.77;56.01;101958.61;363826;145;864023;-59
2021/10/08 05:11:39;;;;;;;16.67;8.67;;;;;;;4.83;56.08;101958.90;363169;147;863977;-59
2021/10/08 05:12:40;;;;;;;17.31;8.84;;;;;;;4.91;56.04;101968.66;364154;144;863786;-59
2021/10/08 05:13:42;;;;;;;18.87;8.78;;;;;;;4.96;55.59;101968.08;363701;145;864460;-59
2021/10/08 05:14:44;;;;;;;17.13;8.60;;;;;;;4.99;55.46;101959.63;361681;145;863918;-59
2021/10/08 05:15:46;;;;;;;15.80;8.88;;;;;;;5.00;55.44;101958.83;365531;145;856787;-59
2021/10/08 05:16:48;;;;;;;14.43;8.48;;;;;;;5.04;55.30;101959.86;361606;145;863890;-58
2021/10/08 05:17:50;;;;;;;14.91;8.95;;;;;;;5.10;55.29;101958.45;364255;145;856845;-58
2021/10/08 05:18:52;;;;;;;19.06;8.96;;;;;;;5.19;54.97;101960.58;363201;146;864409;-59
2021/10/08 05:19:54;;;;;;;19.55;8.84;;;;;;;5.29;54.88;101956.73;357861;148;864279;-59
2021/10/08 05:20:56;;;;;;;18.03;9.08;;;;;;;5.38;54.87;101959.75;362710;145;856068;-58
2021/10/08 05:21:58;;;;;;;15.05;8.68;;;;;;;5.47;54.21;101955.84;365058;146;864319;-59
2021/10/08 05:23:00;;;;;;;13.76;8.83;;;;;;;5.57;54.39;101963.16;367923;146;863979;-59
2021/10/08 05:24:02;;;;;;;22.57;9.11;;;;;;;5.64;54.12;101965.19;362908;145;863985;-59
2021/10/08 05:25:04;;;;;;;20.94;8.81;;;;;;;5.71;54.10;101961.19;364120;144;856188;-60
2021/10/08 05:26:07;;;;;;;18.21;9.26;;;;;;;5.77;53.82;101961.46;363731;148;864598;-59
2021/10/08 05:27:08;;;;;;;19.44;8.83;;;;;;;5.84;53.55;101963.52;361757;146;856362;-59
2021/10/08 05:28:10;;;;;;;18.81;9.08;;;;;;;5.86;53.23;101963.57;365643;145;857171;-59
2021/10/08 05:29:12;;;;;;;27.84;9.32;;;;;;;5.86;53.26;101953.29;363678;147;864768;-59
2021/10/08 05:30:15;;;;;;;14.75;8.74;;;;;;;5.90;53.29;101955.18;363672;145;864180;-58
2021/10/08 05:31:17;;;;;;;19.73;8.96;;;;;;;;;;364341;145;856217;-59
2021/10/08 05:32:18;;;;;;;18.26;8.26;;;;;;;;;;360685;147;856572;-59
2021/10/08 05:33:20;;;;;;;13.48;7.86;;;;;;;;;;362752;147;856434;-58
2021/10/08 05:34:22;;;;;;;17.11;8.52;;;;;;;;;;362098;145;856563;-58
2021/10/08 05:35:24;;;;;;;15.41;8.46;;;;;;;;;;364760;146;856014;-59
2021/10/08 05:36:27;;;;;;;20.16;8.94;;;;;;;;;;355108;148;864389;-59
2021/10/08 05:37:28;;;;;;;14.42;8.54;;;;;;;;;;364712;145;856150;-59
2021/10/08 05:38:30;;;;;;;15.95;8.26;;;;;;;;;;365296;145;863836;-59
2021/10/08 05:39:31;;;;;;;16.43;8.44;;;;;;;;;;356362;151;856184;-59
2021/10/08 05:40:33;;;;;;;14.79;7.83;;;;;;;;;;352131;151;863923;-59
2021/10/08 05:41:35;;;;;;;16.89;7.97;;;;;;;;;;362439;144;856339;-59
2021/10/08 05:42:37;;;;;;;14.46;7.97;;;;;;;;;;364566;147;856051;-59
2021/10/08 05:43:38;;;;;;;16.21;8.12;;;;;;;;;;363062;147;863930;-60
2021/10/08 05:44:40;;;;;;;14.83;7.99;;;;;;;;;;363524;145;863972;-59
2021/10/08 05:45:41;;;;;;;17.96;8.30;;;;;;;;;;364905;145;863851;-59
2021/10/08 05:46:45;;;;;;;17.48;8.06;;;;;;;;;;361351;144;864010;-60
2021/10/08 05:47:46;;;;;;;16.21;8.34;;;;;;;;;;360898;146;856869;-59
2021/10/08 05:48:48;;;;;;;15.16;7.87;;;;;;;;;;365479;145;856021;-59
2021/10/08 05:49:49;;;;;;;12.21;7.86;;;;;;;;;;362847;147;864333;-60
2021/10/08 05:50:52;;;;;;;14.82;7.86;;;;;;;;;;365786;146;856463;-59
2021/10/08 05:51:54;;;;;;;13.44;7.71;;;;;;;;;;364944;145;856101;-59
2021/10/08 05:52:55;;;;;;;13.56;7.55;;;;;;;;;;365945;145;856249;-59
2021/10/08 05:53:57;;;;;;;16.81;8.83;;;;;;;;;;363719;148;858045;-59
2021/10/08 05:54:59;;;;;;;14.12;7.93;;;;;;;;;;363822;146;863795;-59
2021/10/08 05:56:00;;;;;;;17.29;8.62;;;;;;;;;;363909;145;862366;-60
2021/10/08 05:57:04;;;;;;;11.80;7.66;;;;;;;;;;364296;147;856103;-60
2021/10/08 05:58:10;;;;;;;11.88;7.86;;;;;;;;;;360905;145;863844;-59
2021/10/08 05:59:09;;;;;;;16.96;8.38;;;;;;;;;;362495;144;863960;-59
2021/10/08 06:00:12;;;;;;;16.18;8.05;;;;;;;;;;363545;144;864163;-59
2021/10/08 06:01:14;;;;;;;14.59;7.64;;;;;;;;;;361030;144;864487;-59
2021/10/08 06:02:15;;;;;;;17.16;8.36;;;;;;;;;;363625;145;863948;-59
2021/10/08 06:03:17;;;;;;;13.70;8.24;;;;;;;;;;362099;145;856110;-59